sensor_id;sensor_type;location;lat;lon;timestamp;pressure;altitude;pressure_sealevel;temperature;humidity
37878;BME280;23715;53.652;8.516;2023-05-23T00:04:20;104724.14;;;15.00;100.00
37878;BME280;23715;53.652;8.516;2023-05-23T00:09:22;104678.23;;;15.36;100.00
37878;BME280;23715;53.652;8.516;2023-05-23T00:14:22;104584.73;;;15.06;100.00
37878;BME280;23715;53.652;8.516;2023-05-23T00:19:24;104591.99;;;15.64;100.00
37878;BME280;23715;53.652;8.516;2023-05-23T00:24:24;104383.58;;;15.44;100.00
37878;BME280;23715;53.652;8.516;2023-05-23T00:29:25;104313.26;;;15.85;100.00
37878;BME280;23715;53.652;8.516;2023-05-23T00:34:25;104121.69;;;15.47;100.00
37878;BME280;23715;53.652;8.516;2023-05-23T00:39:25;103978.92;;;15.46;100.00
37878;BME280;23715;53.652;8.516;2023-05-23T00:44:26;103895.41;;;15.67;100.00
37878;BME280;23715;53.652;8.516;2023-05-23T00:49:27;103730.05;;;15.35;100.00
37878;BME280;23715;53.652;8.516;2023-05-23T00:54:28;103712.22;;;15.38;100.00
37878;BME280;23715;53.652;8.516;2023-05-23T00:59:35;103641.87;;;15.14;100.00
37878;BME280;23715;53.652;8.516;2023-05-23T01:04:37;103680.83;;;14.90;100.00
37878;BME280;23715;53.652;8.516;2023-05-23T01:09:38;103786.76;;;15.24;100.00
37878;BME280;23715;53.652;8.516;2023-05-23T01:15:08;103712.52;;;15.03;100.00
37878;BME280;23715;53.652;8.516;2023-05-23T01:20:17;103713.59;;;14.78;100.00
37878;BME280;23715;53.652;8.516;2023-05-23T01:30:29;103672.48;;;15.23;100.00
37878;BME280;23715;53.652;8.516;2023-05-23T01:35:30;103603.57;;;15.41;100.00
37878;BME280;23715;53.652;8.516;2023-05-23T01:40:31;103482.53;;;15.26;100.00
37878;BME280;23715;53.652;8.516;2023-05-23T01:45:32;103403.20;;;14.95;100.00
37878;BME280;23715;53.652;8.516;2023-05-23T01:50:34;103453.91;;;14.93;100.00
37878;BME280;23715;53.652;8.516;2023-05-23T01:55:35;103514.87;;;15.08;100.00
37878;BME280;23715;53.652;8.516;2023-05-23T02:00:35;103595.74;;;14.39;100.00
37878;BME280;23715;53.652;8.516;2023-05-23T02:05:36;103783.78;;;14.58;100.00
37878;BME280;23715;53.652;8.516;2023-05-23T02:10:38;103838.36;;;14.08;100.00
37878;BME280;23715;53.652;8.516;2023-05-23T02:15:38;104028.28;;;14.16;100.00
37878;BME280;23715;53.652;8.516;2023-05-23T02:20:40;104265.30;;;14.70;100.00
37878;BME280;23715;53.652;8.516;2023-05-23T02:25:41;104428.47;;;14.67;100.00
37878;BME280;23715;53.652;8.516;2023-05-23T02:30:41;104601.02;;;14.85;100.00
37878;BME280;23715;53.652;8.516;2023-05-23T02:35:42;104697.23;;;15.06;100.00
37878;BME280;23715;53.652;8.516;2023-05-23T02:40:43;104690.39;;;15.17;100.00
37878;BME280;23715;53.652;8.516;2023-05-23T02:45:43;104625.89;;;15.45;100.00
37878;BME280;23715;53.652;8.516;2023-05-23T02:50:43;104526.31;;;15.66;100.00
37878;BME280;23715;53.652;8.516;2023-05-23T02:55:44;104327.02;;;14.63;100.00
37878;BME280;23715;53.652;8.516;2023-05-23T03:00:44;104476.07;;;14.72;100.00
37878;BME280;23715;53.652;8.516;2023-05-23T03:05:44;104584.58;;;14.37;100.00
37878;BME280;23715;53.652;8.516;2023-05-23T03:10:45;104741.65;;;14.71;100.00
37878;BME280;23715;53.652;8.516;2023-05-23T03:15:45;104772.44;;;14.80;100.00
37878;BME280;23715;53.652;8.516;2023-05-23T03:20:45;104670.31;;;14.48;100.00
37878;BME280;23715;53.652;8.516;2023-05-23T03:25:47;104625.08;;;14.40;100.00
37878;BME280;23715;53.652;8.516;2023-05-23T03:30:48;104613.61;;;14.76;100.00
37878;BME280;23715;53.652;8.516;2023-05-23T03:35:47;104492.57;;;14.56;100.00
37878;BME280;23715;53.652;8.516;2023-05-23T03:40:48;104435.43;;;14.52;100.00
37878;BME280;23715;53.652;8.516;2023-05-23T03:45:48;104356.31;;;14.35;100.00
37878;BME280;23715;53.652;8.516;2023-05-23T03:50:49;104365.67;;;14.67;100.00
37878;BME280;23715;53.652;8.516;2023-05-23T03:55:49;104269.75;;;14.71;100.00
37878;BME280;23715;53.652;8.516;2023-05-23T04:00:51;104139.38;;;14.60;100.00
37878;BME280;23715;53.652;8.516;2023-05-23T04:05:52;104045.53;;;14.05;100.00
37878;BME280;23715;53.652;8.516;2023-05-23T04:10:53;104112.42;;;14.12;100.00
37878;BME280;23715;53.652;8.516;2023-05-23T04:15:55;104172.11;;;14.09;100.00
37878;BME280;23715;53.652;8.516;2023-05-23T04:20:57;104152.30;;;14.17;100.00
37878;BME280;23715;53.652;8.516;2023-05-23T04:25:57;104111.49;;;14.21;100.00
37878;BME280;23715;53.652;8.516;2023-05-23T04:31:01;104079.97;;;14.29;100.00
37878;BME280;23715;53.652;8.516;2023-05-23T04:36:03;103941.94;;;13.75;100.00
37878;BME280;23715;53.652;8.516;2023-05-23T04:41:13;103955.05;;;13.57;100.00
37878;BME280;23715;53.652;8.516;2023-05-23T04:46:11;104031.51;;;13.69;100.00
37878;BME280;23715;53.652;8.516;2023-05-23T04:51:13;104013.57;;;13.58;100.00
37878;BME280;23715;53.652;8.516;2023-05-23T04:56:18;104034.70;;;13.69;100.00
37878;BME280;23715;53.652;8.516;2023-05-23T05:01:23;104015.87;;;13.84;100.00
37878;BME280;23715;53.652;8.516;2023-05-23T05:06:24;103909.80;;;13.69;100.00
37878;BME280;23715;53.652;8.516;2023-05-23T05:11:28;103832.81;;;13.59;100.00
37878;BME280;23715;53.652;8.516;2023-05-23T05:16:28;103764.64;;;13.35;100.00
37878;BME280;23715;53.652;8.516;2023-05-23T05:21:30;103758.56;;;13.21;100.00
37878;BME280;23715;53.652;8.516;2023-05-23T05:26:30;103767.34;;;12.98;100.00
37878;BME280;23715;53.652;8.516;2023-05-23T05:31:31;103833.72;;;13.13;100.00
37878;BME280;23715;53.652;8.516;2023-05-23T05:36:31;103847.02;;;13.26;100.00
37878;BME280;23715;53.652;8.516;2023-05-23T05:41:32;103735.65;;;13.11;100.00
37878;BME280;23715;53.652;8.516;2023-05-23T05:46:33;103667.78;;;12.99;100.00
37878;BME280;23715;53.652;8.516;2023-05-23T05:51:33;103607.73;;;12.94;100.00
37878;BME280;23715;53.652;8.516;2023-05-23T05:56:33;103590.56;;;13.04;100.00
37878;BME280;23715;53.652;8.516;2023-05-23T06:01:34;103544.36;;;12.75;100.00
37878;BME280;23715;53.652;8.516;2023-05-23T06:06:37;103561.11;;;12.91;100.00
37878;BME280;23715;53.652;8.516;2023-05-23T06:11:37;103566.91;;;12.83;100.00
37878;BME280;23715;53.652;8.516;2023-05-23T06:16:39;103571.19;;;12.87;100.00
37878;BME280;23715;53.652;8.516;2023-05-23T06:21:39;103534.43;;;12.84;100.00
37878;BME280;23715;53.652;8.516;2023-05-23T06:26:41;103468.11;;;12.70;100.00
37878;BME280;23715;53.652;8.516;2023-05-23T06:31:46;103450.08;;;12.79;100.00
37878;BME280;23715;53.652;8.516;2023-05-23T06:36:45;103400.50;;;12.80;100.00
37878;BME280;23715;53.652;8.516;2023-05-23T06:41:53;103354.58;;;12.64;100.00
37878;BME280;23715;53.652;8.516;2023-05-23T06:46:51;103329.49;;;12.62;100.00
37878;BME280;23715;53.652;8.516;2023-05-23T06:51:53;103287.87;;;12.66;100.00
37878;BME280;23715;53.652;8.516;2023-05-23T06:56:54;103181.91;;;12.47;100.00
37878;BME280;23715;53.652;8.516;2023-05-23T07:01:56;103107.39;;;12.28;100.00
37878;BME280;23715;53.652;8.516;2023-05-23T07:06:57;103069.57;;;12.21;100.00
37878;BME280;23715;53.652;8.516;2023-05-23T07:11:57;103092.02;;;12.38;100.00
37878;BME280;23715;53.652;8.516;2023-05-23T07:16:58;103080.49;;;12.43;100.00
37878;BME280;23715;53.652;8.516;2023-05-23T07:21:59;103010.84;;;12.26;100.00
37878;BME280;23715;53.652;8.516;2023-05-23T07:27:00;102958.23;;;12.26;100.00
37878;BME280;23715;53.652;8.516;2023-05-23T07:32:10;102885.01;;;12.33;100.00
37878;BME280;23715;53.652;8.516;2023-05-23T07:37:10;102810.53;;;12.30;100.00
37878;BME280;23715;53.652;8.516;2023-05-23T07:42:12;102741.53;;;12.11;100.00
37878;BME280;23715;53.652;8.516;2023-05-23T07:47:13;102645.70;;;12.13;100.00
37878;BME280;23715;53.652;8.516;2023-05-23T07:52:14;102583.09;;;12.15;100.00
37878;BME280;23715;53.652;8.516;2023-05-23T07:57:15;102515.61;;;11.88;100.00
37878;BME280;23715;53.652;8.516;2023-05-23T08:02:16;102491.17;;;11.84;100.00
37878;BME280;23715;53.652;8.516;2023-05-23T08:07:17;102453.63;;;11.81;100.00
37878;BME280;23715;53.652;8.516;2023-05-23T08:12:24;102423.20;;;12.13;100.00
37878;BME280;23715;53.652;8.516;2023-05-23T08:17:29;102378.91;;;12.56;100.00
37878;BME280;23715;53.652;8.516;2023-05-23T08:22:30;102305.98;;;12.76;100.00
37878;BME280;23715;53.652;8.516;2023-05-23T08:27:30;102233.70;;;12.74;100.00
37878;BME280;23715;53.652;8.516;2023-05-23T08:32:32;102184.17;;;12.43;100.00
37878;BME280;23715;53.652;8.516;2023-05-23T08:37:34;102155.92;;;12.73;100.00
37878;BME280;23715;53.652;8.516;2023-05-23T08:42:36;102115.13;;;12.65;100.00
37878;BME280;23715;53.652;8.516;2023-05-23T08:47:45;102083.05;;;12.73;100.00
37878;BME280;23715;53.652;8.516;2023-05-23T08:52:57;102054.31;;;12.48;100.00
37878;BME280;23715;53.652;8.516;2023-05-23T08:58:02;102029.29;;;12.46;100.00
37878;BME280;23715;53.652;8.516;2023-05-23T09:03:10;101996.61;;;12.32;100.00
37878;BME280;23715;53.652;8.516;2023-05-23T09:08:14;101985.05;;;12.48;100.00
37878;BME280;23715;53.652;8.516;2023-05-23T09:13:17;101962.23;;;12.47;100.00
37878;BME280;23715;53.652;8.516;2023-05-23T09:18:20;101945.16;;;12.41;100.00
37878;BME280;23715;53.652;8.516;2023-05-23T09:23:21;101959.95;;;12.29;100.00
37878;BME280;23715;53.652;8.516;2023-05-23T09:28:21;101962.70;;;12.41;100.00
37878;BME280;23715;53.652;8.516;2023-05-23T09:33:21;101961.77;;;12.59;100.00
37878;BME280;23715;53.652;8.516;2023-05-23T09:38:23;101952.55;;;13.02;100.00
37878;BME280;23715;53.652;8.516;2023-05-23T09:43:28;101945.64;;;12.81;100.00
37878;BME280;23715;53.652;8.516;2023-05-23T09:48:29;101952.59;;;12.73;100.00
37878;BME280;23715;53.652;8.516;2023-05-23T09:53:29;101942.31;;;12.78;100.00
37878;BME280;23715;53.652;8.516;2023-05-23T09:58:29;101944.21;;;12.53;100.00
37878;BME280;23715;53.652;8.516;2023-05-23T10:03:38;101952.48;;;12.74;100.00
37878;BME280;23715;53.652;8.516;2023-05-23T10:08:42;101972.06;;;13.00;100.00
37878;BME280;23715;53.652;8.516;2023-05-23T10:13:49;101971.30;;;12.87;100.00
37878;BME280;23715;53.652;8.516;2023-05-23T10:18:48;101981.23;;;12.81;100.00
37878;BME280;23715;53.652;8.516;2023-05-23T10:23:55;101981.67;;;12.34;100.00
37878;BME280;23715;53.652;8.516;2023-05-23T10:29:00;101999.94;;;12.60;100.00
37878;BME280;23715;53.652;8.516;2023-05-23T10:34:22;102001.02;;;12.27;100.00
37878;BME280;23715;53.652;8.516;2023-05-23T10:39:08;102008.94;;;12.23;100.00
37878;BME280;23715;53.652;8.516;2023-05-23T10:44:25;102013.28;;;12.61;100.00
37878;BME280;23715;53.652;8.516;2023-05-23T10:49:58;102013.68;;;12.38;100.00
37878;BME280;23715;53.652;8.516;2023-05-23T10:54:35;102013.68;;;12.38;100.00
37878;BME280;23715;53.652;8.516;2023-05-23T10:59:37;102009.91;;;12.76;100.00
37878;BME280;23715;53.652;8.516;2023-05-23T11:04:40;102006.08;;;13.20;100.00
37878;BME280;23715;53.652;8.516;2023-05-23T11:10:01;102012.48;;;13.19;100.00
37878;BME280;23715;53.652;8.516;2023-05-23T11:20:13;102024.33;;;13.63;100.00
37878;BME280;23715;53.652;8.516;2023-05-23T11:25:07;102024.33;;;13.63;100.00
37878;BME280;23715;53.652;8.516;2023-05-23T11:30:19;102024.74;;;13.12;100.00
37878;BME280;23715;53.652;8.516;2023-05-23T11:35:19;102030.50;;;13.01;100.00
37878;BME280;23715;53.652;8.516;2023-05-23T11:40:27;102034.23;;;13.28;100.00
37878;BME280;23715;53.652;8.516;2023-05-23T11:45:29;102048.05;;;13.01;100.00
37878;BME280;23715;53.652;8.516;2023-05-23T11:50:30;102058.33;;;13.37;100.00
37878;BME280;23715;53.652;8.516;2023-05-23T11:55:30;102062.34;;;13.20;100.00
37878;BME280;23715;53.652;8.516;2023-05-23T12:00:31;102065.11;;;13.88;100.00
37878;BME280;23715;53.652;8.516;2023-05-23T12:05:31;102070.52;;;13.82;100.00
37878;BME280;23715;53.652;8.516;2023-05-23T12:20:34;102088.33;;;13.45;100.00
37878;BME280;23715;53.652;8.516;2023-05-23T12:25:41;102105.44;;;13.85;100.00
37878;BME280;23715;53.652;8.516;2023-05-23T12:30:42;102118.80;;;13.18;100.00
37878;BME280;23715;53.652;8.516;2023-05-23T12:35:43;102127.27;;;13.13;100.00
37878;BME280;23715;53.652;8.516;2023-05-23T12:40:44;102141.11;;;12.79;100.00
37878;BME280;23715;53.652;8.516;2023-05-23T12:45:44;102132.25;;;13.06;100.00
37878;BME280;23715;53.652;8.516;2023-05-23T12:50:44;102141.95;;;13.03;100.00
37878;BME280;23715;53.652;8.516;2023-05-23T12:55:45;102134.03;;;12.89;100.00
37878;BME280;23715;53.652;8.516;2023-05-23T13:00:45;102142.73;;;13.46;100.00
37878;BME280;23715;53.652;8.516;2023-05-23T13:05:45;102135.80;;;13.83;100.00
37878;BME280;23715;53.652;8.516;2023-05-23T13:10:45;102132.84;;;13.98;100.00
37878;BME280;23715;53.652;8.516;2023-05-23T13:15:46;102131.25;;;14.01;100.00
37878;BME280;23715;53.652;8.516;2023-05-23T13:20:46;102114.87;;;13.57;100.00
37878;BME280;23715;53.652;8.516;2023-05-23T13:25:46;102131.79;;;13.42;100.00
37878;BME280;23715;53.652;8.516;2023-05-23T13:30:48;102146.19;;;13.19;100.00
37878;BME280;23715;53.652;8.516;2023-05-23T13:40:59;102162.42;;;12.76;100.00
37878;BME280;23715;53.652;8.516;2023-05-23T13:46:06;102161.56;;;12.76;100.00
37878;BME280;23715;53.652;8.516;2023-05-23T13:51:18;102180.59;;;13.22;100.00
37878;BME280;23715;53.652;8.516;2023-05-23T13:56:30;102172.20;;;13.20;100.00
37878;BME280;23715;53.652;8.516;2023-05-23T14:45:21;102196.52;;;12.90;100.00
37878;BME280;23715;53.652;8.516;2023-05-23T14:50:22;102205.68;;;12.69;100.00
37878;BME280;23715;53.652;8.516;2023-05-23T14:55:22;102211.50;;;12.00;100.00
37878;BME280;23715;53.652;8.516;2023-05-23T15:00:22;102216.25;;;11.97;100.00
37878;BME280;23715;53.652;8.516;2023-05-23T15:05:23;102219.34;;;12.10;100.00
37878;BME280;23715;53.652;8.516;2023-05-23T15:10:24;102220.25;;;12.79;100.00
37878;BME280;23715;53.652;8.516;2023-05-23T15:15:24;102222.19;;;12.59;100.00
37878;BME280;23715;53.652;8.516;2023-05-23T15:20:26;102215.77;;;12.73;100.00
37878;BME280;23715;53.652;8.516;2023-05-23T15:25:28;102213.60;;;12.78;100.00
37878;BME280;23715;53.652;8.516;2023-05-23T15:30:30;102194.77;;;12.89;100.00
37878;BME280;23715;53.652;8.516;2023-05-23T15:35:36;102210.02;;;12.90;100.00
37878;BME280;23715;53.652;8.516;2023-05-23T15:40:32;102214.12;;;13.50;100.00
37878;BME280;23715;53.652;8.516;2023-05-23T15:45:32;102205.58;;;12.89;100.00
37878;BME280;23715;53.652;8.516;2023-05-23T15:50:33;102216.97;;;12.68;100.00
37878;BME280;23715;53.652;8.516;2023-05-23T15:55:33;102226.55;;;12.23;100.00
37878;BME280;23715;53.652;8.516;2023-05-23T16:00:34;102228.84;;;12.16;100.00
37878;BME280;23715;53.652;8.516;2023-05-23T16:05:35;102226.39;;;12.06;100.00
37878;BME280;23715;53.652;8.516;2023-05-23T16:10:35;102211.00;;;12.39;100.00
37878;BME280;23715;53.652;8.516;2023-05-23T16:15:37;102211.00;;;12.39;100.00
37878;BME280;23715;53.652;8.516;2023-05-23T16:20:43;102222.14;;;12.09;100.00
37878;BME280;23715;53.652;8.516;2023-05-23T16:31:27;102204.41;;;12.43;100.00
37878;BME280;23715;53.652;8.516;2023-05-23T16:36:34;102209.50;;;11.97;100.00
37878;BME280;23715;53.652;8.516;2023-05-23T16:41:50;102203.95;;;11.93;100.00
37878;BME280;23715;53.652;8.516;2023-05-23T16:47:20;102205.11;;;12.40;100.00
37878;BME280;23715;53.652;8.516;2023-05-23T16:52:14;102206.06;;;12.20;100.00
37878;BME280;23715;53.652;8.516;2023-05-23T16:57:24;102193.72;;;11.98;100.00
37878;BME280;23715;53.652;8.516;2023-05-23T17:02:36;102200.94;;;11.64;100.00
37878;BME280;23715;53.652;8.516;2023-05-23T17:07:49;102194.38;;;11.81;100.00
37878;BME280;23715;53.652;8.516;2023-05-23T17:13:05;102204.02;;;11.45;100.00
37878;BME280;23715;53.652;8.516;2023-05-23T17:18:28;102205.56;;;11.62;100.00
37878;BME280;23715;53.652;8.516;2023-05-23T17:29:17;102211.02;;;11.35;100.00
37878;BME280;23715;53.652;8.516;2023-05-23T17:34:24;102212.86;;;11.47;100.00
37878;BME280;23715;53.652;8.516;2023-05-23T17:39:37;102224.75;;;11.58;100.00
37878;BME280;23715;53.652;8.516;2023-05-23T17:44:49;102219.14;;;11.61;100.00
37878;BME280;23715;53.652;8.516;2023-05-23T17:49:49;102227.86;;;11.31;100.00
37878;BME280;23715;53.652;8.516;2023-05-23T17:54:49;102223.70;;;11.73;100.00
37878;BME280;23715;53.652;8.516;2023-05-23T17:59:49;102227.31;;;11.79;100.00
37878;BME280;23715;53.652;8.516;2023-05-23T18:04:49;102230.48;;;11.99;100.00
37878;BME280;23715;53.652;8.516;2023-05-23T18:09:49;102240.59;;;11.62;100.00
37878;BME280;23715;53.652;8.516;2023-05-23T18:14:49;102243.06;;;10.98;100.00
37878;BME280;23715;53.652;8.516;2023-05-23T18:19:51;102247.81;;;11.22;100.00
37878;BME280;23715;53.652;8.516;2023-05-23T18:24:52;102245.25;;;11.40;100.00
37878;BME280;23715;53.652;8.516;2023-05-23T18:29:52;102241.94;;;10.95;100.00
37878;BME280;23715;53.652;8.516;2023-05-23T18:34:53;102245.31;;;11.19;100.00
37878;BME280;23715;53.652;8.516;2023-05-23T18:39:53;102251.39;;;11.42;100.00
37878;BME280;23715;53.652;8.516;2023-05-23T18:44:55;102262.53;;;10.89;100.00
37878;BME280;23715;53.652;8.516;2023-05-23T18:49:56;102263.08;;;10.87;100.00
37878;BME280;23715;53.652;8.516;2023-05-23T18:54:56;102253.63;;;11.08;100.00
37878;BME280;23715;53.652;8.516;2023-05-23T18:59:57;102261.53;;;11.04;100.00
37878;BME280;23715;53.652;8.516;2023-05-23T19:04:57;102266.09;;;11.17;100.00
37878;BME280;23715;53.652;8.516;2023-05-23T19:09:57;102262.36;;;10.49;100.00
37878;BME280;23715;53.652;8.516;2023-05-23T19:14:58;102273.07;;;10.99;100.00
37878;BME280;23715;53.652;8.516;2023-05-23T19:19:59;102278.27;;;11.02;100.00
37878;BME280;23715;53.652;8.516;2023-05-23T19:24:59;102270.37;;;11.06;100.00
37878;BME280;23715;53.652;8.516;2023-05-23T19:29:59;102279.05;;;10.75;100.00
37878;BME280;23715;53.652;8.516;2023-05-23T19:34:59;102276.58;;;10.58;100.00
37878;BME280;23715;53.652;8.516;2023-05-23T19:40:01;102283.21;;;10.74;100.00
37878;BME280;23715;53.652;8.516;2023-05-23T19:45:04;102282.62;;;10.62;100.00
37878;BME280;23715;53.652;8.516;2023-05-23T19:50:07;102293.00;;;10.39;100.00
37878;BME280;23715;53.652;8.516;2023-05-23T19:55:08;102294.63;;;10.49;100.00
37878;BME280;23715;53.652;8.516;2023-05-23T20:00:09;102305.96;;;10.75;100.00
37878;BME280;23715;53.652;8.516;2023-05-23T20:05:09;102310.20;;;10.58;100.00
37878;BME280;23715;53.652;8.516;2023-05-23T20:10:09;102306.17;;;10.80;100.00
37878;BME280;23715;53.652;8.516;2023-05-23T20:15:10;102305.69;;;10.73;100.00
37878;BME280;23715;53.652;8.516;2023-05-23T20:20:11;102307.26;;;10.18;100.00
37878;BME280;23715;53.652;8.516;2023-05-23T20:25:11;102293.41;;;10.47;100.00
37878;BME280;23715;53.652;8.516;2023-05-23T20:30:12;102290.80;;;10.39;100.00
37878;BME280;23715;53.652;8.516;2023-05-23T20:35:12;102310.02;;;10.54;100.00
37878;BME280;23715;53.652;8.516;2023-05-23T20:40:13;102315.49;;;10.60;100.00
37878;BME280;23715;53.652;8.516;2023-05-23T20:45:13;102315.97;;;10.52;100.00
37878;BME280;23715;53.652;8.516;2023-05-23T20:50:13;102320.77;;;10.47;100.00
37878;BME280;23715;53.652;8.516;2023-05-23T20:55:17;102317.91;;;10.57;100.00
37878;BME280;23715;53.652;8.516;2023-05-23T21:00:18;102312.14;;;10.70;100.00
37878;BME280;23715;53.652;8.516;2023-05-23T21:05:19;102316.34;;;10.60;100.00
37878;BME280;23715;53.652;8.516;2023-05-23T21:10:22;102308.25;;;10.96;100.00
37878;BME280;23715;53.652;8.516;2023-05-23T21:15:25;102303.67;;;10.77;100.00
37878;BME280;23715;53.652;8.516;2023-05-23T21:20:25;102296.03;;;11.05;100.00
37878;BME280;23715;53.652;8.516;2023-05-23T21:25:27;102295.91;;;10.72;100.00
37878;BME280;23715;53.652;8.516;2023-05-23T21:30:32;102293.53;;;10.94;100.00
37878;BME280;23715;53.652;8.516;2023-05-23T21:35:29;102297.05;;;11.17;100.00
37878;BME280;23715;53.652;8.516;2023-05-23T21:40:29;102297.87;;;11.39;100.00
37878;BME280;23715;53.652;8.516;2023-05-23T21:45:29;102301.23;;;11.08;100.00
37878;BME280;23715;53.652;8.516;2023-05-23T21:50:35;102310.80;;;10.78;100.00
37878;BME280;23715;53.652;8.516;2023-05-23T21:55:36;102295.09;;;10.27;100.00
37878;BME280;23715;53.652;8.516;2023-05-23T22:00:36;102295.09;;;10.27;100.00
37878;BME280;23715;53.652;8.516;2023-05-23T22:05:37;102312.72;;;10.40;100.00
37878;BME280;23715;53.652;8.516;2023-05-23T22:10:37;102304.45;;;10.50;100.00
37878;BME280;23715;53.652;8.516;2023-05-23T22:15:38;102304.55;;;10.63;100.00
37878;BME280;23715;53.652;8.516;2023-05-23T22:20:41;102287.34;;;10.37;100.00
37878;BME280;23715;53.652;8.516;2023-05-23T22:25:41;102287.30;;;10.87;100.00
37878;BME280;23715;53.652;8.516;2023-05-23T22:30:41;102281.41;;;10.53;100.00
37878;BME280;23715;53.652;8.516;2023-05-23T22:35:42;102281.59;;;10.57;100.00
37878;BME280;23715;53.652;8.516;2023-05-23T22:40:42;102283.48;;;10.69;100.00
37878;BME280;23715;53.652;8.516;2023-05-23T22:45:42;102270.52;;;10.54;100.00
37878;BME280;23715;53.652;8.516;2023-05-23T22:50:45;102276.36;;;10.25;100.00
37878;BME280;23715;53.652;8.516;2023-05-23T22:55:45;102285.22;;;10.49;100.00
37878;BME280;23715;53.652;8.516;2023-05-23T23:06:52;102278.27;;;10.95;100.00
37878;BME280;23715;53.652;8.516;2023-05-23T23:45:11;102281.68;;;10.55;100.00
37878;BME280;23715;53.652;8.516;2023-05-23T23:50:12;102278.11;;;10.69;100.00
37878;BME280;23715;53.652;8.516;2023-05-23T23:55:12;102282.14;;;10.77;100.00
